Time;durP1;ratioP1;P1;durP2;ratioP2;P2;SDS_P1;SDS_P2;PMS_P1;PMS_P2;Temp;Humidity;BMP_temperature;BMP_pressure;BME280_temperature;BME280_humidity;BME280_pressure;Samples;Min_cycle;Max_cycle;Signal;HPM_P1;HPM_P2
2022/05/05 00:01:02;;;;;;;7.63;4.05;;;14.80;99.90;;;;;;5032240;28;20458;-75
2022/05/05 00:03:28;;;;;;;5.75;4.28;;;14.80;99.90;;;;;;5032893;28;20034;-75
2022/05/05 00:05:54;;;;;;;5.10;3.72;;;14.80;99.90;;;;;;5014939;28;20025;-75
2022/05/05 00:08:20;;;;;;;6.05;3.60;;;14.80;99.90;;;;;;5014066;28;20069;-75
2022/05/05 00:16:14;;;;;;;7.15;4.20;;;14.80;99.90;;;;;;5032003;28;20076;-75
2022/05/05 00:18:39;;;;;;;7.70;4.40;;;14.70;99.90;;;;;;5014740;28;20434;-75
2022/05/05 00:21:05;;;;;;;6.40;4.00;;;14.70;99.90;;;;;;5031678;28;20077;-75
2022/05/05 00:23:30;;;;;;;7.00;4.13;;;14.70;99.90;;;;;;5015062;28;20029;-75
2022/05/05 00:25:56;;;;;;;6.93;4.13;;;14.60;99.90;;;;;;5014641;28;20450;-74
2022/05/05 00:28:22;;;;;;;5.38;4.20;;;14.70;99.90;;;;;;5014120;28;20426;-75
2022/05/05 00:30:47;;;;;;;6.10;4.22;;;14.60;99.90;;;;;;5032410;28;20113;-75
2022/05/05 00:33:13;;;;;;;5.35;3.97;;;14.60;99.90;;;;;;5031770;28;20087;-75
2022/05/05 00:35:38;;;;;;;5.18;3.90;;;14.60;99.90;;;;;;5032331;28;20104;-75
2022/05/05 00:38:04;;;;;;;7.15;4.32;;;14.60;99.90;;;;;;5013996;28;20040;-75
2022/05/05 00:40:30;;;;;;;5.47;4.03;;;14.60;99.90;;;;;;5032333;28;20022;-75
2022/05/05 00:42:58;;;;;;;7.13;4.00;;;14.60;99.90;;;;;;5014454;28;20025;-75
2022/05/05 00:45:24;;;;;;;8.77;4.10;;;14.50;99.90;;;;;;5016664;28;20029;-75
2022/05/05 00:47:49;;;;;;;5.22;4.05;;;14.50;99.90;;;;;;5018196;28;20037;-75
2022/05/05 00:50:18;;;;;;;6.07;4.00;;;14.60;99.90;;;;;;5035672;28;20083;-75
2022/05/05 00:52:44;;;;;;;6.78;4.20;;;14.60;99.90;;;;;;5018089;28;20036;-75
2022/05/05 00:55:10;;;;;;;6.25;4.38;;;14.70;99.90;;;;;;5035345;28;20021;-75
2022/05/05 00:57:37;;;;;;;7.32;4.47;;;14.60;99.90;;;;;;5036040;28;20096;-75
2022/05/05 01:00:03;;;;;;;7.28;4.20;;;14.50;99.90;;;;;;5017460;28;20026;-75
2022/05/05 01:02:30;;;;;;;6.10;4.50;;;14.50;99.90;;;;;;5018010;28;20053;-75
2022/05/05 01:04:56;;;;;;;6.35;4.40;;;14.50;99.90;;;;;;5018007;28;20052;-75
2022/05/05 01:07:23;;;;;;;5.72;4.57;;;14.50;99.90;;;;;;5017288;28;20485;-75
2022/05/05 01:09:49;;;;;;;7.90;5.32;;;14.40;99.90;;;;;;5017806;28;20033;-75
2022/05/05 01:12:15;;;;;;;8.57;5.38;;;14.30;99.90;;;;;;5017317;28;20060;-75
2022/05/05 01:14:41;;;;;;;7.55;5.22;;;14.30;99.90;;;;;;5035550;28;20124;-75
2022/05/05 01:17:07;;;;;;;7.68;5.18;;;14.20;99.90;;;;;;5017222;28;20040;-75
2022/05/05 01:19:35;;;;;;;8.45;5.50;;;14.20;99.90;;;;;;5017630;28;20036;-75
2022/05/05 01:22:00;;;;;;;8.63;4.85;;;14.20;99.90;;;;;;5017003;28;20049;-77
2022/05/05 01:29:55;;;;;;;8.07;5.45;;;14.20;99.90;;;;;;5035304;28;20040;-75
2022/05/05 01:32:21;;;;;;;6.60;5.13;;;14.10;99.90;;;;;;5017018;28;20574;-75
2022/05/05 01:34:47;;;;;;;7.43;4.88;;;14.10;99.90;;;;;;5017434;28;20515;-75
2022/05/05 01:37:13;;;;;;;8.95;5.57;;;14.10;99.90;;;;;;5034592;28;20029;-75
2022/05/05 01:39:39;;;;;;;7.60;5.30;;;14.10;99.90;;;;;;5017402;28;20069;-75
2022/05/05 01:42:05;;;;;;;6.85;5.28;;;14.10;99.90;;;;;;5034482;28;20441;-75
2022/05/05 01:44:31;;;;;;;7.20;5.15;;;14.10;99.90;;;;;;5016863;28;20021;-75
2022/05/05 01:46:56;;;;;;;6.95;5.07;;;14.00;99.90;;;;;;5034884;28;20109;-75
2022/05/05 01:49:22;;;;;;;7.38;5.35;;;14.10;99.90;;;;;;5034380;28;20352;-75
2022/05/05 01:51:48;;;;;;;7.15;5.43;;;14.00;99.90;;;;;;5035067;28;20033;-75
2022/05/05 01:54:13;;;;;;;8.13;4.85;;;14.00;99.90;;;;;;5016630;28;20453;-75
2022/05/05 01:56:39;;;;;;;7.45;5.75;;;14.00;99.90;;;;;;5034317;28;20057;-75
2022/05/05 01:59:06;;;;;;;6.75;5.38;;;14.10;99.90;;;;;;5016409;28;20125;-75
2022/05/05 02:01:33;;;;;;;6.90;5.38;;;14.10;99.90;;;;;;5016947;28;20057;-75
2022/05/05 02:04:00;;;;;;;10.70;5.43;;;14.10;99.90;;;;;;5016971;28;20021;-75
2022/05/05 02:06:26;;;;;;;9.68;5.93;;;14.00;99.90;;;;;;5034124;28;20021;-75
2022/05/05 02:08:52;;;;;;;8.82;5.57;;;14.00;99.90;;;;;;5016684;28;20087;-75
2022/05/05 02:11:18;;;;;;;8.70;5.85;;;13.90;99.90;;;;;;5033996;28;20072;-75
2022/05/05 02:13:43;;;;;;;11.75;6.20;;;13.90;99.90;;;;;;5034209;28;20485;-75
2022/05/05 02:16:09;;;;;;;8.90;5.60;;;13.90;99.90;;;;;;5016165;28;20486;-75
2022/05/05 02:18:35;;;;;;;7.85;5.57;;;13.90;99.90;;;;;;5016576;28;20037;-75
2022/05/05 02:21:00;;;;;;;8.52;4.80;;;13.90;99.90;;;;;;5016220;28;20052;-75
2022/05/05 02:23:26;;;;;;;8.60;5.88;;;13.90;99.90;;;;;;5033738;28;20140;-74
2022/05/05 02:25:52;;;;;;;6.30;4.90;;;13.90;99.90;;;;;;5016490;28;20036;-75
2022/05/05 02:28:18;;;;;;;6.78;5.47;;;13.90;99.90;;;;;;5033591;28;20029;-75
2022/05/05 02:30:44;;;;;;;7.78;5.28;;;13.90;99.90;;;;;;5034251;28;20423;-75
2022/05/05 02:33:09;;;;;;;6.80;5.35;;;13.90;99.90;;;;;;5033589;28;20051;-75
2022/05/05 02:35:35;;;;;;;8.00;5.15;;;13.90;99.90;;;;;;5016368;28;20454;-75
2022/05/05 02:40:45;;;;;;;9.38;4.95;;;13.90;99.90;;;;;;5033835;28;20120;-74
2022/05/05 02:43:11;;;;;;;6.97;5.60;;;13.90;99.90;;;;;;5033389;28;20044;-75
2022/05/05 02:45:37;;;;;;;7.28;5.45;;;13.80;99.90;;;;;;5016100;28;20059;-75
2022/05/05 02:48:04;;;;;;;6.95;5.32;;;13.80;99.90;;;;;;5015908;28;20466;-75
2022/05/05 02:50:29;;;;;;;8.20;5.40;;;13.80;99.90;;;;;;5033062;28;20083;-75
2022/05/05 02:52:55;;;;;;;7.85;5.70;;;13.80;99.90;;;;;;5015945;28;20033;-75
2022/05/05 02:55:21;;;;;;;8.63;5.90;;;13.80;99.90;;;;;;5015415;28;20390;-75
2022/05/05 02:57:47;;;;;;;8.93;5.70;;;13.70;99.90;;;;;;5015871;28;20029;-75
2022/05/05 03:00:13;;;;;;;8.18;5.88;;;13.80;99.90;;;;;;5032816;28;20032;-74
2022/05/05 03:02:43;;;;;;;7.47;5.55;;;13.80;99.90;;;;;;5015509;28;20029;-75
2022/05/05 03:05:16;;;;;;;11.07;5.80;;;13.80;99.90;;;;;;5033051;28;20028;-75
2022/05/05 03:07:42;;;;;;;11.20;6.07;;;13.80;99.90;;;;;;5032669;28;20417;-75
2022/05/05 03:10:09;;;;;;;6.93;5.55;;;13.70;99.90;;;;;;5015239;28;20466;-75
2022/05/05 03:12:34;;;;;;;9.60;5.65;;;13.70;99.90;;;;;;5033334;28;20485;-75
2022/05/05 03:15:00;;;;;;;8.82;5.82;;;13.80;99.90;;;;;;5015700;28;20030;-74
2022/05/05 03:17:26;;;;;;;7.95;5.40;;;13.70;99.90;;;;;;5015017;28;20383;-75
2022/05/05 03:19:51;;;;;;;8.40;5.85;;;13.70;99.90;;;;;;5015082;28;20387;-75
2022/05/05 03:22:17;;;;;;;7.72;5.10;;;13.70;99.90;;;;;;5014742;28;20049;-75
2022/05/05 03:24:42;;;;;;;7.40;5.57;;;13.70;99.90;;;;;;5015414;28;20033;-75
2022/05/05 03:27:08;;;;;;;6.95;5.25;;;13.70;99.90;;;;;;5032483;28;20030;-77
2022/05/05 03:29:34;;;;;;;7.80;5.63;;;13.70;99.90;;;;;;5015640;28;20038;-74
2022/05/05 03:31:59;;;;;;;9.48;5.70;;;13.70;99.90;;;;;;5015427;28;20458;-75
2022/05/05 03:34:26;;;;;;;8.60;5.57;;;13.70;99.90;;;;;;5032413;28;20362;-75
2022/05/05 03:36:51;;;;;;;9.65;5.80;;;13.70;99.90;;;;;;5015249;28;20053;-75
2022/05/05 03:39:17;;;;;;;8.00;5.40;;;13.70;99.90;;;;;;5032331;28;20065;-75
2022/05/05 03:41:45;;;;;;;10.25;5.80;;;13.60;99.90;;;;;;5032953;28;20033;-75
2022/05/05 03:44:11;;;;;;;7.95;5.20;;;13.60;99.90;;;;;;5032345;28;20031;-75
2022/05/05 03:46:36;;;;;;;7.53;6.00;;;13.70;99.90;;;;;;5014968;28;20087;-75
2022/05/05 03:49:02;;;;;;;8.05;5.30;;;13.70;99.90;;;;;;5032695;28;20056;-75
2022/05/05 03:51:28;;;;;;;8.30;5.60;;;13.70;99.90;;;;;;5031935;28;20033;-75
2022/05/05 03:53:53;;;;;;;6.60;5.47;;;13.70;99.90;;;;;;5015034;28;20064;-75
2022/05/05 03:56:19;;;;;;;7.45;5.78;;;13.70;99.90;;;;;;5014498;28;20025;-75
2022/05/05 03:58:45;;;;;;;9.32;6.25;;;13.70;99.90;;;;;;5015033;28;20033;-75
2022/05/05 04:01:10;;;;;;;10.98;6.00;;;13.70;99.90;;;;;;5014397;28;20025;-77
2022/05/05 04:03:43;;;;;;;12.70;7.28;;;13.70;99.90;;;;;;5032581;28;20025;-75
2022/05/05 04:06:09;;;;;;;10.07;6.65;;;13.70;99.90;;;;;;5032656;28;20033;-75
2022/05/05 04:08:37;;;;;;;10.38;6.50;;;13.70;99.90;;;;;;5014219;28;20026;-75
2022/05/05 04:11:04;;;;;;;10.55;6.85;;;13.60;99.90;;;;;;5014845;28;20030;-75
2022/05/05 04:13:29;;;;;;;8.40;6.00;;;13.60;99.90;;;;;;5014298;28;20025;-75
2022/05/05 04:15:55;;;;;;;10.38;7.05;;;13.60;99.90;;;;;;5032195;28;20036;-75
2022/05/05 04:18:21;;;;;;;8.43;6.65;;;13.60;99.90;;;;;;5014623;28;20493;-75
2022/05/05 04:20:47;;;;;;;10.35;7.18;;;13.60;99.90;;;;;;5018430;28;20029;-75
2022/05/05 04:23:13;;;;;;;10.05;6.55;;;13.60;99.90;;;;;;5018275;28;20026;-75
2022/05/05 04:25:43;;;;;;;9.85;6.85;;;13.70;99.90;;;;;;5018602;28;20032;-75
2022/05/05 04:28:10;;;;;;;9.13;6.13;;;13.60;99.90;;;;;;5036361;28;20060;-75
2022/05/05 04:30:36;;;;;;;9.05;6.43;;;13.60;99.90;;;;;;5035529;28;20087;-75
2022/05/05 04:33:02;;;;;;;9.70;6.07;;;13.60;99.90;;;;;;5018285;28;20025;-75
2022/05/05 04:35:27;;;;;;;8.50;5.95;;;13.70;99.90;;;;;;5018039;28;20029;-75
2022/05/05 04:37:53;;;;;;;8.75;6.32;;;13.70;99.90;;;;;;5036292;28;20034;-75
2022/05/05 04:40:19;;;;;;;10.50;6.55;;;13.60;99.90;;;;;;5018019;28;20025;-75
2022/05/05 04:42:45;;;;;;;8.57;6.13;;;13.60;99.90;;;;;;5035831;28;20462;-75
2022/05/05 04:45:11;;;;;;;7.70;6.20;;;13.60;99.90;;;;;;5018437;28;20032;-75
2022/05/05 04:47:37;;;;;;;7.93;5.80;;;13.70;99.90;;;;;;5017517;28;20033;-75
2022/05/05 04:50:03;;;;;;;8.32;6.22;;;13.70;99.90;;;;;;5035736;28;20040;-75
2022/05/05 04:52:30;;;;;;;9.65;6.95;;;13.70;99.90;;;;;;5017237;28;20033;-75
2022/05/05 04:54:56;;;;;;;11.48;6.90;;;13.80;99.90;;;;;;5018358;28;20095;-75
2022/05/05 04:57:22;;;;;;;9.63;6.05;;;13.80;99.90;;;;;;5017602;28;20417;-75
2022/05/05 04:59:47;;;;;;;8.07;6.20;;;13.80;99.90;;;;;;5017758;28;20033;-75
2022/05/05 05:02:13;;;;;;;7.90;5.78;;;13.90;99.90;;;;;;5018154;28;20030;-75
2022/05/05 05:04:39;;;;;;;7.72;5.50;;;13.90;99.90;;;;;;5018093;28;20060;-74
2022/05/05 05:07:04;;;;;;;8.75;5.60;;;14.00;99.90;;;;;;5017905;28;20029;-75
2022/05/05 05:09:30;;;;;;;10.07;6.00;;;13.90;99.90;;;;;;5017427;28;20029;-75
2022/05/05 05:11:56;;;;;;;10.77;6.65;;;13.90;99.90;;;;;;5018009;28;20091;-74
2022/05/05 05:14:21;;;;;;;8.85;5.88;;;13.90;99.90;;;;;;5035178;28;20454;-75
2022/05/05 05:16:47;;;;;;;9.43;6.22;;;14.00;99.90;;;;;;5018033;28;20030;-75
2022/05/05 05:19:13;;;;;;;7.35;5.40;;;14.00;99.90;;;;;;5035226;28;20057;-74
2022/05/05 05:21:38;;;;;;;9.48;6.00;;;14.00;99.90;;;;;;5016785;28;20060;-74
2022/05/05 05:24:04;;;;;;;9.73;6.57;;;14.00;99.90;;;;;;5017598;28;20030;-74
2022/05/05 05:26:30;;;;;;;8.38;6.05;;;14.00;99.90;;;;;;5033567;28;20021;-75
2022/05/05 05:28:56;;;;;;;9.00;6.10;;;14.00;99.90;;;;;;5017621;28;20033;-74
2022/05/05 05:31:22;;;;;;;8.20;5.88;;;14.00;99.90;;;;;;5016242;28;20492;-74
2022/05/05 05:33:50;;;;;;;10.00;6.60;;;14.00;99.90;;;;;;5017443;28;20025;-75
2022/05/05 05:36:16;;;;;;;7.47;6.10;;;14.00;99.90;;;;;;5016754;28;20485;-76
2022/05/05 05:38:42;;;;;;;9.05;6.57;;;14.00;99.90;;;;;;5017390;28;20120;-75
2022/05/05 05:41:08;;;;;;;7.88;5.93;;;14.00;99.90;;;;;;5035139;28;20029;-75
2022/05/05 05:43:34;;;;;;;10.85;6.35;;;14.00;99.90;;;;;;5016725;28;20028;-75
2022/05/05 05:46:00;;;;;;;9.45;6.15;;;14.00;99.90;;;;;;5017432;28;20025;-75
2022/05/05 05:48:25;;;;;;;10.75;6.45;;;14.00;99.90;;;;;;5016645;28;20037;-75
2022/05/05 05:50:51;;;;;;;10.60;6.65;;;14.00;99.90;;;;;;5034925;28;20462;-75
2022/05/05 05:53:17;;;;;;;8.90;6.30;;;14.00;99.90;;;;;;5016583;28;20061;-77
2022/05/05 05:55:42;;;;;;;9.68;6.00;;;14.10;99.90;;;;;;5016749;28;20025;-74
2022/05/05 05:58:08;;;;;;;10.23;6.88;;;14.10;99.90;;;;;;5016937;28;20036;-74
2022/05/05 06:00:34;;;;;;;12.98;7.28;;;14.10;99.90;;;;;;5034087;28;20397;-74
2022/05/05 06:05:45;;;;;;;10.85;7.47;;;14.10;99.90;;;;;;5034670;28;20048;-74
2022/05/05 06:08:11;;;;;;;11.05;7.00;;;14.10;99.90;;;;;;5016770;28;20025;-74
2022/05/05 06:10:37;;;;;;;10.93;6.85;;;14.10;99.90;;;;;;5016303;28;20386;-74
2022/05/05 06:13:03;;;;;;;9.73;7.15;;;14.10;99.90;;;;;;5016696;28;20037;-74
2022/05/05 06:15:29;;;;;;;12.15;6.85;;;14.10;99.90;;;;;;5032737;28;20029;-74
2022/05/05 06:17:56;;;;;;;10.30;6.72;;;14.10;99.90;;;;;;5034397;28;20033;-74
2022/05/05 06:20:21;;;;;;;12.38;7.18;;;14.00;99.90;;;;;;5015940;28;20029;-75
2022/05/05 06:22:50;;;;;;;9.77;6.85;;;14.00;99.90;;;;;;5016546;28;20058;-74
2022/05/05 06:25:15;;;;;;;10.55;6.72;;;14.00;99.90;;;;;;5034277;28;20021;-74
2022/05/05 06:27:41;;;;;;;9.38;6.53;;;14.00;99.90;;;;;;5033468;28;20032;-74
2022/05/05 06:30:13;;;;;;;18.60;9.43;;;14.10;99.90;;;;;;5034162;28;20025;-74
2022/05/05 06:32:42;;;;;;;14.15;7.93;;;14.10;99.90;;;;;;5032389;28;20479;-74
2022/05/05 06:35:09;;;;;;;12.15;7.57;;;14.20;99.90;;;;;;5015944;28;20029;-74
2022/05/05 06:37:35;;;;;;;10.90;7.10;;;14.20;99.90;;;;;;5033551;28;20112;-74
2022/05/05 06:40:01;;;;;;;14.00;7.30;;;14.30;99.90;;;;;;5016241;28;20033;-74
2022/05/05 06:42:30;;;;;;;17.17;8.70;;;14.30;99.90;;;;;;5015680;28;20029;-75
2022/05/05 06:44:56;;;;;;;14.82;8.60;;;14.40;99.90;;;;;;5016093;28;20026;-74
2022/05/05 06:47:22;;;;;;;11.80;6.78;;;14.50;99.90;;;;;;5031944;28;20030;-75
2022/05/05 06:49:47;;;;;;;10.68;6.70;;;14.40;99.90;;;;;;5015952;28;20029;-74
2022/05/05 06:52:13;;;;;;;10.32;7.13;;;14.40;99.90;;;;;;5015592;28;20029;-74
2022/05/05 06:54:39;;;;;;;14.18;7.00;;;14.40;99.90;;;;;;5015366;28;20172;-75
2022/05/05 06:57:05;;;;;;;10.05;6.60;;;14.50;99.90;;;;;;5016094;28;20022;-74
2022/05/05 06:59:31;;;;;;;12.15;7.13;;;14.50;99.90;;;;;;5015259;28;20029;-74
2022/05/05 07:02:01;;;;;;;11.60;6.53;;;14.60;99.90;;;;;;5015777;28;20083;-74
2022/05/05 07:07:13;;;;;;;20.48;11.43;;;14.60;99.90;;;;;;5033494;28;20552;-74
2022/05/05 07:12:24;;;;;;;16.75;9.48;;;14.60;99.90;;;;;;5032876;28;20378;-74
2022/05/05 07:14:49;;;;;;;13.38;7.78;;;14.60;99.90;;;;;;5033095;28;20026;-74
2022/05/05 07:17:15;;;;;;;11.10;7.05;;;14.60;99.90;;;;;;5033242;28;20033;-74
2022/05/05 07:19:41;;;;;;;10.70;7.13;;;14.70;99.90;;;;;;5015025;28;20029;-74
2022/05/05 07:22:07;;;;;;;10.60;6.63;;;14.70;99.90;;;;;;5015277;28;20183;-74
2022/05/05 07:24:33;;;;;;;10.85;6.78;;;14.80;99.90;;;;;;5014687;28;20030;-74
2022/05/05 07:27:03;;;;;;;11.45;6.93;;;14.70;99.90;;;;;;5015343;28;20028;-74
2022/05/05 07:29:30;;;;;;;10.63;6.82;;;14.60;99.90;;;;;;5014778;28;20036;-74
2022/05/05 07:31:56;;;;;;;12.10;7.57;;;14.60;99.90;;;;;;5015355;28;20021;-74
2022/05/05 07:34:22;;;;;;;11.07;7.22;;;14.70;99.90;;;;;;5015351;28;20026;-74
2022/05/05 07:36:48;;;;;;;11.95;7.07;;;14.70;99.90;;;;;;5033212;28;20474;-74
2022/05/05 07:39:14;;;;;;;17.15;8.10;;;14.70;99.90;;;;;;5032659;28;20032;-74
2022/05/05 07:41:40;;;;;;;13.65;7.88;;;14.70;99.90;;;;;;5014657;28;20025;-73
2022/05/05 07:44:06;;;;;;;12.30;7.38;;;14.60;99.90;;;;;;5032854;28;20104;-74
2022/05/05 07:46:36;;;;;;;13.68;8.43;;;14.60;99.90;;;;;;5032366;28;20064;-74
2022/05/05 07:49:04;;;;;;;12.82;8.10;;;14.60;99.90;;;;;;5014996;28;20025;-74
2022/05/05 07:51:33;;;;;;;15.10;8.25;;;14.60;99.90;;;;;;5032025;28;20053;-74
2022/05/05 07:56:44;;;;;;;15.38;8.75;;;14.50;99.90;;;;;;5032214;28;20098;-74
2022/05/05 07:59:11;;;;;;;16.10;9.75;;;14.50;99.90;;;;;;5014984;28;20030;-74
2022/05/05 08:01:37;;;;;;;18.48;9.57;;;14.50;99.90;;;;;;5014408;28;20466;-74
2022/05/05 08:04:03;;;;;;;15.55;10.07;;;14.60;99.90;;;;;;5032679;28;20104;-74
2022/05/05 08:06:28;;;;;;;18.52;10.32;;;14.50;99.90;;;;;;5032047;28;20063;-75
2022/05/05 08:08:54;;;;;;;27.38;15.98;;;14.50;99.90;;;;;;5014772;28;20026;-74
2022/05/05 08:11:20;;;;;;;18.05;11.13;;;14.50;99.90;;;;;;5014945;28;20061;-74
2022/05/05 08:13:46;;;;;;;17.08;10.50;;;14.50;99.90;;;;;;5014274;28;20466;-74
2022/05/05 08:16:12;;;;;;;20.38;11.50;;;14.50;99.90;;;;;;5014895;28;20068;-74
2022/05/05 08:18:38;;;;;;;18.02;10.40;;;14.50;99.90;;;;;;5031927;28;20030;-74
2022/05/05 08:21:10;;;;;;;16.60;10.55;;;14.40;99.90;;;;;;5011081;28;20092;-74
2022/05/05 08:23:36;;;;;;;19.58;10.70;;;14.40;99.90;;;;;;5010981;28;20422;-74
2022/05/05 08:28:45;;;;;;;17.27;10.13;;;14.40;99.90;;;;;;5011896;28;20736;-74
2022/05/05 08:31:12;;;;;;;14.80;9.75;;;14.40;99.90;;;;;;5011639;28;20463;-73
2022/05/05 08:33:38;;;;;;;18.52;10.15;;;14.40;99.90;;;;;;5010854;28;20437;-74
2022/05/05 08:36:05;;;;;;;14.30;9.85;;;14.40;99.90;;;;;;5011386;28;20030;-74
2022/05/05 08:38:31;;;;;;;18.55;11.25;;;14.50;99.90;;;;;;5027223;28;20128;-74
2022/05/05 08:40:57;;;;;;;17.85;11.02;;;14.40;99.90;;;;;;5011344;28;20084;-73
2022/05/05 08:43:23;;;;;;;17.35;10.57;;;14.40;99.90;;;;;;5011307;28;20446;-74
2022/05/05 08:45:50;;;;;;;19.60;10.85;;;14.30;99.90;;;;;;5010720;28;20037;-74
2022/05/05 08:48:17;;;;;;;18.52;10.93;;;14.30;99.90;;;;;;5012453;28;20131;-74
2022/05/05 08:50:47;;;;;;;19.17;11.13;;;14.20;99.90;;;;;;5010699;28;20044;-74
2022/05/05 08:53:14;;;;;;;17.95;11.13;;;14.20;99.90;;;;;;5011430;28;20034;-74
2022/05/05 08:55:41;;;;;;;20.60;11.05;;;14.10;99.90;;;;;;5010590;28;20033;-74
2022/05/05 08:58:06;;;;;;;22.42;13.32;;;14.10;99.90;;;;;;5011125;28;20053;-74
2022/05/05 09:00:32;;;;;;;31.05;18.13;;;14.10;99.90;;;;;;5011939;28;20446;-75
2022/05/05 09:03:04;;;;;;;23.75;13.60;;;14.10;99.90;;;;;;5012520;28;20525;-74
2022/05/05 09:05:46;;;;;;;23.02;11.30;;;14.10;99.90;;;;;;5011261;28;20458;-75
2022/05/05 09:08:32;;;;;;;18.17;10.32;;;14.00;99.90;;;;;;5014607;28;20433;-74
2022/05/05 09:11:01;;;;;;;19.90;11.23;;;14.00;99.90;;;;;;5015302;28;20470;-74
2022/05/05 09:13:37;;;;;;;18.45;11.65;;;13.90;99.90;;;;;;5014628;28;20036;-74
2022/05/05 09:16:04;;;;;;;20.92;10.85;;;13.90;99.90;;;;;;5014577;28;20049;-74
2022/05/05 09:18:32;;;;;;;18.73;11.20;;;13.80;99.90;;;;;;5013849;28;20076;-74
2022/05/05 09:21:04;;;;;;;19.33;10.77;;;13.80;99.90;;;;;;5017221;28;20057;-74
2022/05/05 09:26:28;;;;;;;18.90;11.25;;;13.80;99.90;;;;;;5035570;28;20555;-75
2022/05/05 09:28:56;;;;;;;17.25;9.68;;;13.80;99.90;;;;;;5016857;28;20087;-75
2022/05/05 09:31:22;;;;;;;15.48;9.68;;;13.90;99.90;;;;;;5035249;28;20044;-75
2022/05/05 09:33:48;;;;;;;16.98;10.20;;;13.80;99.90;;;;;;5016836;28;20060;-75
2022/05/05 09:36:28;;;;;;;17.35;9.48;;;13.90;99.90;;;;;;5017374;28;20056;-74
2022/05/05 09:39:02;;;;;;;15.23;9.52;;;13.90;99.90;;;;;;5034614;28;20029;-75
2022/05/05 09:41:33;;;;;;;17.60;10.13;;;13.90;99.90;;;;;;5035164;28;20017;-75
2022/05/05 09:44:00;;;;;;;17.03;10.23;;;13.90;99.90;;;;;;5017443;28;20057;-74
2022/05/05 09:46:26;;;;;;;17.23;9.98;;;13.90;99.90;;;;;;5034872;28;20030;-75
2022/05/05 09:48:52;;;;;;;15.40;9.45;;;13.80;99.90;;;;;;5034333;28;20351;-75
2022/05/05 09:51:18;;;;;;;18.73;9.82;;;13.80;99.90;;;;;;5017320;28;20025;-75
2022/05/05 09:59:29;;;;;;;19.25;9.23;;;13.80;99.90;;;;;;5034904;28;20044;-74
2022/05/05 10:02:04;;;;;;;18.08;9.90;;;13.90;99.90;;;;;;5016644;28;20036;-75
2022/05/05 10:04:36;;;;;;;16.08;9.05;;;13.90;99.90;;;;;;5034781;28;20183;-75
2022/05/05 10:07:03;;;;;;;15.88;8.82;;;13.90;99.90;;;;;;5017100;28;20025;-75
2022/05/05 10:09:30;;;;;;;20.17;9.60;;;13.90;99.90;;;;;;5016755;28;20069;-75
2022/05/05 10:11:57;;;;;;;18.13;9.80;;;13.90;99.90;;;;;;5032684;28;20532;-75
2022/05/05 10:14:24;;;;;;;16.90;9.65;;;14.00;99.90;;;;;;5034555;28;20467;-75
2022/05/05 10:16:50;;;;;;;18.35;9.88;;;14.00;99.90;;;;;;5033570;28;20029;-75
2022/05/05 10:19:16;;;;;;;18.30;10.20;;;14.00;99.90;;;;;;5016897;28;20026;-75
2022/05/05 10:21:51;;;;;;;18.48;10.50;;;14.00;99.90;;;;;;5033604;28;20061;-75
2022/05/05 10:24:25;;;;;;;18.00;10.73;;;14.00;99.90;;;;;;5016528;28;20029;-74
2022/05/05 10:26:52;;;;;;;19.23;10.27;;;14.00;99.90;;;;;;5016074;28;20030;-75
2022/05/05 10:29:44;;;;;;;17.15;10.30;;;14.00;99.90;;;;;;5034197;28;20029;-75
2022/05/05 10:32:20;;;;;;;16.15;9.43;;;14.00;99.90;;;;;;5014319;28;20467;-75
2022/05/05 10:34:53;;;;;;;16.70;9.82;;;14.00;99.90;;;;;;5033876;28;20421;-75
2022/05/05 10:37:30;;;;;;;17.85;11.18;;;14.00;99.90;;;;;;5032734;28;20021;-75
2022/05/05 10:40:08;;;;;;;19.90;10.48;;;14.00;99.90;;;;;;5033587;28;20079;-74
2022/05/05 10:42:40;;;;;;;19.65;9.77;;;14.00;99.90;;;;;;5033146;28;20229;-76
2022/05/05 10:45:10;;;;;;;23.23;13.00;;;14.00;99.90;;;;;;5032883;28;20067;-75
2022/05/05 10:47:52;;;;;;;26.77;13.57;;;13.90;99.90;;;;;;5015480;28;20470;-75
2022/05/05 10:50:46;;;;;;;23.50;13.20;;;14.00;99.90;;;;;;5015805;28;20037;-74
2022/05/05 10:53:29;;;;;;;17.17;10.15;;;13.90;99.90;;;;;;5016283;28;20048;-75
2022/05/05 10:55:56;;;;;;;17.52;10.07;;;13.90;99.90;;;;;;5015429;28;20239;-74
2022/05/05 10:58:56;;;;;;;18.38;9.88;;;14.00;99.90;;;;;;5015829;28;20117;-74
2022/05/05 11:01:22;;;;;;;20.63;8.93;;;13.90;99.90;;;;;;5016135;28;20033;-75
2022/05/05 11:04:07;;;;;;;15.27;9.40;;;14.00;99.90;;;;;;5015342;28;20030;-75
2022/05/05 11:06:34;;;;;;;19.70;9.27;;;14.00;99.90;;;;;;5015770;28;20022;-75
2022/05/05 11:09:00;;;;;;;16.05;9.38;;;14.00;99.90;;;;;;5015209;28;20025;-75
2022/05/05 11:11:44;;;;;;;18.27;9.30;;;14.10;99.90;;;;;;5033687;28;20022;-75
2022/05/05 11:23:10;;;;;;;16.08;8.13;;;14.40;99.90;;;;;;5032930;28;20052;-75
2022/05/05 11:25:42;;;;;;;15.93;9.02;;;14.40;99.90;;;;;;5033192;28;20068;-75
2022/05/05 11:28:11;;;;;;;;;;;14.50;99.90;;;;;;5015127;28;20117;-75
2022/05/05 11:30:41;;;;;;;13.60;8.45;;;14.50;99.90;;;;;;5033283;28;19909;-77
2022/05/05 11:33:07;;;;;;;17.50;9.13;;;14.50;99.90;;;;;;5032890;28;20500;-75
2022/05/05 11:35:33;;;;;;;14.00;8.63;;;14.50;99.90;;;;;;5015459;28;20029;-75
2022/05/05 11:37:59;;;;;;;15.20;9.05;;;14.50;99.90;;;;;;5014750;28;20561;-75
2022/05/05 11:40:25;;;;;;;17.67;9.52;;;14.60;99.90;;;;;;5032681;28;20425;-75
2022/05/05 11:45:37;;;;;;;18.52;8.85;;;14.60;99.90;;;;;;5032975;28;20505;-73
2022/05/05 11:48:19;;;;;;;20.48;10.13;;;14.40;99.90;;;;;;5033067;28;20505;-76
2022/05/05 11:50:44;;;;;;;18.67;9.10;;;14.50;99.90;;;;;;5014616;28;20053;-76
2022/05/05 11:53:17;;;;;;;17.45;8.85;;;14.50;99.90;;;;;;5015147;28;20641;-73
2022/05/05 11:55:48;;;;;;;15.75;9.07;;;14.40;99.90;;;;;;5030975;28;20029;-73
2022/05/05 11:58:16;;;;;;;17.47;8.73;;;14.40;99.90;;;;;;5014702;28;20045;-73
2022/05/05 12:03:26;;;;;;;17.88;9.27;;;14.50;99.90;;;;;;5032744;28;20045;-74
2022/05/05 12:05:53;;;;;;;16.25;8.98;;;14.50;99.90;;;;;;5032064;28;20021;-73
2022/05/05 12:08:19;;;;;;;14.60;8.48;;;14.60;99.90;;;;;;5014820;28;20040;-73
2022/05/05 12:10:45;;;;;;;14.45;8.48;;;14.70;99.90;;;;;;5014344;28;20034;-76
2022/05/05 12:13:11;;;;;;;15.50;8.85;;;14.80;99.90;;;;;;5014920;28;20029;-75
2022/05/05 12:15:38;;;;;;;17.15;9.43;;;14.70;99.90;;;;;;5014780;28;20025;-73
2022/05/05 12:18:13;;;;;;;15.25;8.98;;;14.60;99.90;;;;;;5014417;28;20037;-73
2022/05/05 12:20:42;;;;;;;17.50;8.75;;;14.60;99.90;;;;;;5032307;28;20110;-75
2022/05/05 12:23:10;;;;;;;13.75;8.65;;;14.60;99.90;;;;;;5014901;28;20064;-73
2022/05/05 12:25:41;;;;;;;19.30;9.50;;;14.60;99.90;;;;;;5032416;28;20030;-73
2022/05/05 12:28:09;;;;;;;18.23;8.65;;;14.70;99.90;;;;;;5032462;28;20056;-73
2022/05/05 12:30:42;;;;;;;18.80;8.82;;;14.80;99.90;;;;;;5014676;28;20041;-73
2022/05/05 12:33:17;;;;;;;18.13;9.63;;;14.80;99.90;;;;;;5032326;28;20036;-72
2022/05/05 12:35:45;;;;;;;17.83;9.73;;;14.70;99.90;;;;;;5031731;28;20111;-74
2022/05/05 12:38:13;;;;;;;16.83;9.07;;;14.70;99.90;;;;;;5014749;28;20033;-73
2022/05/05 12:40:46;;;;;;;23.33;10.50;;;14.80;99.90;;;;;;5017080;28;20466;-73
2022/05/05 12:43:21;;;;;;;50.13;23.50;;;14.80;99.90;;;;;;5018432;28;20455;-73
2022/05/05 12:45:48;;;;;;;29.23;13.55;;;14.80;99.90;;;;;;5017795;28;20466;-73
2022/05/05 12:48:14;;;;;;;19.85;10.65;;;14.80;99.90;;;;;;5036109;28;20041;-73
2022/05/05 12:50:47;;;;;;;22.73;10.48;;;14.80;99.90;;;;;;5036370;28;20442;-73
2022/05/05 13:01:32;;;;;;;16.55;9.00;;;15.00;99.90;;;;;;5035758;28;20398;-73
2022/05/05 13:04:01;;;;;;;16.60;8.55;;;15.00;99.90;;;;;;5035160;28;20028;-73
2022/05/05 13:06:27;;;;;;;14.63;9.05;;;15.10;99.90;;;;;;5017886;28;20469;-73
2022/05/05 13:08:55;;;;;;;14.85;8.40;;;15.10;99.90;;;;;;5017240;28;20036;-73
2022/05/05 13:11:22;;;;;;;16.90;8.38;;;15.20;99.90;;;;;;5034401;28;20116;-73
2022/05/05 13:13:49;;;;;;;15.10;8.57;;;15.40;99.90;;;;;;5017398;28;20473;-73
2022/05/05 13:16:15;;;;;;;14.43;8.35;;;15.30;99.90;;;;;;5017815;28;20539;-73
2022/05/05 13:18:42;;;;;;;16.48;8.82;;;15.40;99.90;;;;;;5017806;28;20121;-73
2022/05/05 13:21:08;;;;;;;14.27;8.25;;;15.40;99.90;;;;;;5034384;28;20041;-73
2022/05/05 13:23:34;;;;;;;16.70;8.52;;;15.50;99.90;;;;;;5034341;28;20183;-73
2022/05/05 13:26:00;;;;;;;15.30;9.32;;;15.50;99.90;;;;;;5035109;28;20064;-73
2022/05/05 13:28:26;;;;;;;13.90;9.30;;;15.50;99.90;;;;;;5017550;28;20064;-73
2022/05/05 13:30:51;;;;;;;16.67;8.98;;;15.50;99.90;;;;;;5016929;28;20029;-73
2022/05/05 13:33:17;;;;;;;15.68;8.68;;;15.60;99.90;;;;;;5017740;28;20025;-73
2022/05/05 13:35:43;;;;;;;17.60;9.48;;;15.70;99.90;;;;;;5017458;28;20091;-73
2022/05/05 13:38:08;;;;;;;17.92;8.82;;;15.70;99.90;;;;;;5034483;28;20371;-73
2022/05/05 13:40:34;;;;;;;18.38;9.40;;;15.80;99.90;;;;;;5035005;28;20026;-73